Time;durP1;ratioP1;P1;durP2;ratioP2;P2;SDS_P1;SDS_P2;PMS_P1;PMS_P2;Temp;Humidity;BMP_temperature;BMP_pressure;BME280_temperature;BME280_humidity;BME280_pressure;Samples;Min_cycle;Max_cycle;Signal;HPM_P1;HPM_P2
2021/07/08 00:01:27;;;;;;;7.45;3.38;;;21.90;72.00;;;;;;5111473;28;20039;-78
2021/07/08 00:03:55;;;;;;;8.00;3.63;;;21.80;72.00;;;;;;5100282;27;20481;-78
2021/07/08 00:06:21;;;;;;;8.63;3.25;;;21.80;72.00;;;;;;5108591;27;20024;-78
2021/07/08 00:08:50;;;;;;;5.95;3.72;;;21.80;72.00;;;;;;5107996;28;20042;-78
2021/07/08 00:11:16;;;;;;;10.30;3.10;;;21.80;71.80;;;;;;5112452;28;20042;-79
2021/07/08 00:13:41;;;;;;;7.13;3.20;;;21.70;71.80;;;;;;5112086;27;20100;-78
2021/07/08 00:16:07;;;;;;;7.57;3.85;;;21.70;72.00;;;;;;5112630;28;20382;-78
2021/07/08 00:18:35;;;;;;;8.13;3.65;;;21.60;72.10;;;;;;5107451;28;20027;-77
2021/07/08 00:21:01;;;;;;;5.63;2.83;;;21.60;72.30;;;;;;5110351;28;20134;-78
2021/07/08 00:23:26;;;;;;;11.90;2.60;;;21.60;72.00;;;;;;5112566;28;20155;-78
2021/07/08 00:25:54;;;;;;;9.80;3.40;;;21.50;71.40;;;;;;5112699;28;20034;-77
2021/07/08 00:28:20;;;;;;;7.30;3.60;;;21.60;71.80;;;;;;5116052;28;20031;-77
2021/07/08 00:30:49;;;;;;;6.40;3.25;;;21.50;72.00;;;;;;5119011;28;20031;-78
2021/07/08 00:33:15;;;;;;;14.27;3.88;;;21.50;72.30;;;;;;5112826;28;20024;-78
2021/07/08 00:35:41;;;;;;;7.43;3.88;;;21.50;72.30;;;;;;5110290;28;20415;-78
2021/07/08 00:38:08;;;;;;;11.32;4.57;;;21.50;72.40;;;;;;5119189;28;20432;-78
2021/07/08 00:40:35;;;;;;;8.38;4.70;;;21.40;72.90;;;;;;5112093;28;20047;-78
2021/07/08 00:43:03;;;;;;;12.45;4.43;;;21.40;73.30;;;;;;5112083;28;20039;-78
2021/07/08 00:45:29;;;;;;;9.20;4.22;;;21.40;73.60;;;;;;5111920;28;20077;-78
2021/07/08 00:47:56;;;;;;;8.52;4.60;;;21.30;73.50;;;;;;5112286;28;20023;-78
2021/07/08 00:50:28;;;;;;;7.85;4.40;;;21.30;73.50;;;;;;5110874;28;20118;-78
2021/07/08 00:52:54;;;;;;;10.50;3.85;;;21.30;73.50;;;;;;5116779;28;20022;-77
2021/07/08 00:55:23;;;;;;;9.10;3.58;;;21.30;73.20;;;;;;5114785;28;20027;-77
2021/07/08 00:57:54;;;;;;;7.82;3.25;;;21.20;73.00;;;;;;5126404;27;20019;-78
2021/07/08 01:00:26;;;;;;;13.50;2.95;;;21.20;72.50;;;;;;5116390;28;20042;-77
2021/07/08 01:02:52;;;;;;;11.98;3.58;;;21.20;72.10;;;;;;5115471;28;20150;-77
2021/07/08 01:05:20;;;;;;;9.48;3.13;;;21.20;72.20;;;;;;5118083;27;20024;-78
2021/07/08 01:07:46;;;;;;;14.00;3.45;;;21.10;72.20;;;;;;5118907;27;20063;-77
2021/07/08 01:10:15;;;;;;;10.05;3.13;;;21.10;72.20;;;;;;5114731;28;20032;-78
2021/07/08 01:12:41;;;;;;;9.00;4.15;;;21.10;72.20;;;;;;5120162;27;20095;-77
2021/07/08 01:15:10;;;;;;;8.98;5.65;;;21.00;72.50;;;;;;5116029;28;20043;-77
2021/07/08 01:17:39;;;;;;;9.65;6.15;;;21.00;73.20;;;;;;5115505;28;20031;-78
2021/07/08 01:20:07;;;;;;;9.90;6.03;;;21.00;73.80;;;;;;5116456;28;20462;-77
2021/07/08 01:22:33;;;;;;;17.65;6.32;;;21.00;74.10;;;;;;5142299;27;20016;-78
2021/07/08 01:24:58;;;;;;;11.43;4.90;;;21.00;74.20;;;;;;5134073;27;20432;-78
2021/07/08 01:27:25;;;;;;;12.38;4.63;;;20.90;74.30;;;;;;5116504;27;20114;-78
2021/07/08 01:29:51;;;;;;;15.10;4.53;;;20.90;74.00;;;;;;5115101;28;20042;-78
2021/07/08 01:32:17;;;;;;;18.95;4.88;;;20.80;73.70;;;;;;5114056;28;20023;-78
2021/07/08 01:34:42;;;;;;;15.02;4.80;;;20.80;73.60;;;;;;5118241;27;20490;-78
2021/07/08 01:37:08;;;;;;;10.90;4.47;;;20.80;73.50;;;;;;5117660;27;20420;-78
2021/07/08 01:39:34;;;;;;;13.35;5.38;;;20.70;73.30;;;;;;5114612;28;20034;-78
2021/07/08 01:41:59;;;;;;;10.38;5.80;;;20.70;73.50;;;;;;5115064;28;20035;-78
2021/07/08 01:44:25;;;;;;;9.35;5.28;;;20.70;73.70;;;;;;5115310;28;20048;-78
2021/07/08 01:46:51;;;;;;;9.05;5.50;;;20.70;73.90;;;;;;5114793;28;20035;-78
2021/07/08 01:49:16;;;;;;;18.67;6.45;;;20.70;74.20;;;;;;5114831;28;20174;-78
2021/07/08 01:51:44;;;;;;;15.57;6.60;;;20.60;74.50;;;;;;5115062;28;20030;-78
2021/07/08 01:54:10;;;;;;;13.10;6.07;;;20.60;74.60;;;;;;5113431;28;20050;-78
2021/07/08 01:56:37;;;;;;;13.38;6.25;;;20.60;74.70;;;;;;5114872;28;20027;-78
2021/07/08 01:59:06;;;;;;;9.73;6.93;;;20.60;75.00;;;;;;5102961;28;20028;-78
2021/07/08 02:01:35;;;;;;;17.92;7.38;;;20.60;75.30;;;;;;5113089;28;20179;-78
2021/07/08 02:04:00;;;;;;;17.23;8.35;;;20.60;75.70;;;;;;5118496;27;20039;-79
2021/07/08 02:06:29;;;;;;;11.80;7.78;;;20.60;76.10;;;;;;5124936;27;20092;-71
2021/07/08 02:08:54;;;;;;;19.48;8.05;;;20.50;76.30;;;;;;5116463;27;20035;-72
2021/07/08 02:11:20;;;;;;;15.68;7.88;;;20.60;76.70;;;;;;5116963;27;20024;-71
2021/07/08 02:13:46;;;;;;;12.13;7.53;;;20.50;77.00;;;;;;5113957;28;20038;-71
2021/07/08 02:16:12;;;;;;;11.85;8.73;;;20.50;77.20;;;;;;5114246;28;20114;-73
2021/07/08 02:18:39;;;;;;;9.77;7.78;;;20.60;77.40;;;;;;5115273;28;20031;-73
2021/07/08 02:21:10;;;;;;;11.52;7.85;;;20.50;77.60;;;;;;5112692;28;20138;-72
2021/07/08 02:23:36;;;;;;;12.63;8.30;;;20.50;77.70;;;;;;5114073;28;20034;-71
2021/07/08 02:26:04;;;;;;;16.05;8.77;;;20.50;77.70;;;;;;5113969;28;20478;-71
2021/07/08 02:28:29;;;;;;;14.25;8.13;;;20.50;77.70;;;;;;5113738;28;20362;-72
2021/07/08 02:30:55;;;;;;;17.30;8.38;;;20.50;77.60;;;;;;5118302;27;20080;-82
2021/07/08 02:33:22;;;;;;;13.77;8.57;;;20.40;77.60;;;;;;5120838;27;20055;-77
2021/07/08 02:35:48;;;;;;;16.13;8.07;;;20.40;78.20;;;;;;5121910;27;20091;-78
2021/07/08 02:38:16;;;;;;;12.02;7.78;;;20.40;77.80;;;;;;5121634;27;20478;-78
2021/07/08 02:40:42;;;;;;;11.30;6.50;;;20.40;77.70;;;;;;5115887;27;20047;-77
2021/07/08 02:43:09;;;;;;;10.85;6.72;;;20.40;77.30;;;;;;5118559;27;20023;-78
2021/07/08 02:45:37;;;;;;;14.45;7.80;;;20.40;77.10;;;;;;5123001;27;20035;-77
2021/07/08 02:48:06;;;;;;;10.75;8.10;;;20.30;77.00;;;;;;5118720;27;20478;-78
2021/07/08 02:50:33;;;;;;;9.52;7.60;;;20.30;77.10;;;;;;5119844;27;20030;-78
2021/07/08 02:52:59;;;;;;;13.82;8.20;;;20.20;77.10;;;;;;5122904;27;20498;-78
2021/07/08 02:55:28;;;;;;;12.82;8.45;;;20.20;77.30;;;;;;5118910;27;20070;-78
2021/07/08 02:57:54;;;;;;;12.70;8.38;;;20.20;77.40;;;;;;5106599;27;20056;-78
2021/07/08 03:00:25;;;;;;;12.10;7.93;;;20.20;77.40;;;;;;5120244;27;20067;-78
2021/07/08 03:02:50;;;;;;;11.00;7.70;;;20.20;77.50;;;;;;5119995;27;20423;-78
2021/07/08 03:05:18;;;;;;;11.70;7.50;;;20.20;77.40;;;;;;5123354;27;20027;-78
2021/07/08 03:07:44;;;;;;;11.63;5.78;;;20.10;77.20;;;;;;5123313;27;20023;-78
2021/07/08 03:10:12;;;;;;;10.18;5.30;;;20.10;76.50;;;;;;5118073;27;20034;-78
2021/07/08 03:12:38;;;;;;;7.28;5.18;;;20.00;76.10;;;;;;5114346;27;20502;-78
2021/07/08 03:15:06;;;;;;;10.20;5.43;;;20.00;75.80;;;;;;5118131;27;20496;-78
2021/07/08 03:17:31;;;;;;;7.93;4.72;;;20.00;75.80;;;;;;5116941;27;20027;-78
2021/07/08 03:19:57;;;;;;;7.10;4.95;;;19.90;75.50;;;;;;5114690;27;20429;-78
2021/07/08 03:22:23;;;;;;;13.95;5.30;;;19.90;75.50;;;;;;5112673;28;20428;-79
2021/07/08 03:24:48;;;;;;;10.00;5.13;;;19.80;75.40;;;;;;5112969;28;20016;-78
2021/07/08 03:27:14;;;;;;;11.45;5.07;;;19.80;75.30;;;;;;5113980;28;20377;-78
2021/07/08 03:29:40;;;;;;;10.88;5.65;;;19.80;75.40;;;;;;5125843;27;20553;-78
2021/07/08 03:32:06;;;;;;;11.07;4.55;;;19.80;75.50;;;;;;5114238;27;20118;-78
2021/07/08 03:34:32;;;;;;;11.15;4.28;;;19.70;75.40;;;;;;5113165;28;20394;-78
2021/07/08 03:36:57;;;;;;;7.95;4.30;;;19.80;75.40;;;;;;5112315;27;20047;-78
2021/07/08 03:39:25;;;;;;;7.32;4.60;;;19.80;75.40;;;;;;5112347;28;20019;-78
2021/07/08 03:41:51;;;;;;;7.45;4.22;;;19.70;75.40;;;;;;5113384;27;20122;-78
2021/07/08 03:44:17;;;;;;;28.88;5.97;;;19.70;75.40;;;;;;5112890;28;20482;-78
2021/07/08 03:46:42;;;;;;;223.05;7.80;;;19.60;75.60;;;;;;5110821;27;20101;-78
2021/07/08 03:49:09;;;;;;;283.45;7.20;;;19.60;76.00;;;;;;5117691;27;20045;-78
2021/07/08 03:51:35;;;;;;;330.52;7.47;;;19.60;76.20;;;;;;5118675;27;20444;-78
2021/07/08 03:54:00;;;;;;;187.32;6.05;;;19.60;76.40;;;;;;5121356;27;20028;-78
2021/07/08 03:56:26;;;;;;;75.35;3.90;;;19.60;76.60;;;;;;5119920;27;20023;-78
2021/07/08 03:58:52;;;;;;;9.95;2.70;;;19.50;76.60;;;;;;5114552;27;20409;-78
2021/07/08 04:01:17;;;;;;;32.92;2.85;;;19.50;76.60;;;;;;5113150;27;20040;-78
2021/07/08 04:03:43;;;;;;;7.75;2.83;;;19.50;76.70;;;;;;5121332;27;20020;-78
2021/07/08 04:06:09;;;;;;;3.83;3.05;;;19.50;76.80;;;;;;5117283;27;20031;-78
2021/07/08 04:08:35;;;;;;;4.65;3.50;;;19.40;76.90;;;;;;5120971;27;20030;-78
2021/07/08 04:11:00;;;;;;;4.35;3.15;;;19.40;77.20;;;;;;5119271;27;20028;-78
2021/07/08 04:13:27;;;;;;;12.20;4.38;;;19.40;77.20;;;;;;5113461;27;20032;-78
2021/07/08 04:15:53;;;;;;;6.28;4.20;;;19.50;77.40;;;;;;5114812;28;20043;-78
2021/07/08 04:18:19;;;;;;;8.65;4.13;;;19.40;77.40;;;;;;5123681;28;20038;-77
2021/07/08 04:20:46;;;;;;;5.90;4.07;;;19.40;77.70;;;;;;5108538;28;20547;-77
2021/07/08 04:23:13;;;;;;;5.20;3.60;;;19.40;78.00;;;;;;5110851;28;20043;-77
2021/07/08 04:25:39;;;;;;;5.15;3.90;;;19.40;77.90;;;;;;5111721;28;20035;-78
2021/07/08 04:28:06;;;;;;;6.07;3.85;;;19.40;78.00;;;;;;5110866;28;20019;-77
2021/07/08 04:30:33;;;;;;;6.65;5.20;;;19.40;78.20;;;;;;5113876;28;20027;-77
2021/07/08 04:32:58;;;;;;;6.85;5.40;;;19.40;78.50;;;;;;5106157;28;20439;-78
2021/07/08 04:35:33;;;;;;;7.63;5.57;;;19.50;78.90;;;;;;5109298;28;20056;-78
2021/07/08 04:38:00;;;;;;;10.77;6.18;;;19.40;79.10;;;;;;5112985;28;20153;-78
2021/07/08 04:40:26;;;;;;;10.95;5.78;;;19.40;79.30;;;;;;5112556;28;20051;-78
2021/07/08 04:42:52;;;;;;;9.68;6.40;;;19.50;79.60;;;;;;5117541;28;20031;-78
2021/07/08 04:45:19;;;;;;;13.65;8.32;;;19.50;79.90;;;;;;5111872;28;20066;-78
2021/07/08 04:47:46;;;;;;;11.07;8.32;;;19.50;80.30;;;;;;5115221;28;20050;-77
2021/07/08 04:50:15;;;;;;;14.88;9.10;;;19.40;80.70;;;;;;5120228;28;20020;-77
2021/07/08 04:52:42;;;;;;;14.13;9.02;;;19.50;81.40;;;;;;5117180;28;20023;-78
2021/07/08 04:55:09;;;;;;;14.13;9.40;;;19.40;81.70;;;;;;5108448;28;20097;-78
2021/07/08 04:57:35;;;;;;;12.85;9.32;;;19.40;82.10;;;;;;5116815;28;20023;-78
2021/07/08 05:00:01;;;;;;;17.45;9.90;;;19.50;82.50;;;;;;5115527;28;20532;-78
2021/07/08 05:02:27;;;;;;;17.77;10.45;;;19.50;82.80;;;;;;5121663;28;20047;-78
2021/07/08 05:04:52;;;;;;;16.90;9.77;;;19.50;83.00;;;;;;5120917;28;20028;-78
2021/07/08 05:07:18;;;;;;;18.58;10.00;;;19.60;83.40;;;;;;5119784;28;20041;-78
2021/07/08 05:09:44;;;;;;;16.10;10.23;;;19.60;83.60;;;;;;5114702;28;20420;-78
2021/07/08 05:12:10;;;;;;;24.92;11.38;;;19.60;83.80;;;;;;5109887;28;20027;-78
2021/07/08 05:14:35;;;;;;;15.52;9.77;;;19.60;84.00;;;;;;5113762;28;20107;-78
2021/07/08 05:17:03;;;;;;;19.65;10.82;;;19.60;83.90;;;;;;5113568;28;20024;-77
2021/07/08 05:19:31;;;;;;;20.30;10.95;;;19.70;84.20;;;;;;5105634;28;20023;-77
2021/07/08 05:22:00;;;;;;;20.63;10.20;;;19.70;84.30;;;;;;5117375;28;20084;-71
2021/07/08 05:24:26;;;;;;;27.40;11.68;;;19.70;84.50;;;;;;5112871;28;20385;-72
2021/07/08 05:26:54;;;;;;;17.40;10.43;;;19.80;84.70;;;;;;5121146;28;20108;-71
2021/07/08 05:29:22;;;;;;;16.30;10.75;;;19.80;84.70;;;;;;5114102;28;20024;-73
2021/07/08 05:31:50;;;;;;;18.40;10.45;;;19.80;84.70;;;;;;5114389;28;20067;-71
2021/07/08 05:34:16;;;;;;;15.48;9.95;;;19.90;84.90;;;;;;5115318;28;20051;-71
2021/07/08 05:36:43;;;;;;;14.50;9.75;;;19.90;85.00;;;;;;5116484;28;20530;-71
2021/07/08 05:39:09;;;;;;;18.63;10.25;;;19.90;84.80;;;;;;5114726;28;20080;-71
2021/07/08 05:41:34;;;;;;;16.85;8.98;;;19.90;84.70;;;;;;5121831;27;20114;-71
2021/07/08 05:44:03;;;;;;;15.20;9.40;;;20.00;84.60;;;;;;5121608;27;20430;-71
2021/07/08 05:46:29;;;;;;;15.95;10.30;;;20.00;84.40;;;;;;5119699;27;20375;-70
2021/07/08 05:48:57;;;;;;;17.67;9.73;;;20.00;84.20;;;;;;5122875;27;20028;-71
2021/07/08 05:51:23;;;;;;;18.60;9.98;;;20.10;84.20;;;;;;5126874;27;20042;-72
2021/07/08 05:53:49;;;;;;;18.40;10.27;;;20.10;84.30;;;;;;5120036;27;20042;-72
2021/07/08 05:56:14;;;;;;;19.25;10.60;;;20.20;84.50;;;;;;5121047;27;20094;-72
2021/07/08 05:58:40;;;;;;;12.65;8.63;;;20.20;84.40;;;;;;5126494;27;20426;-72
2021/07/08 06:01:06;;;;;;;16.42;9.35;;;20.20;83.00;;;;;;5121322;27;20043;-70
2021/07/08 06:03:32;;;;;;;12.25;8.43;;;20.20;82.30;;;;;;5111565;28;20057;-71
2021/07/08 06:05:57;;;;;;;18.20;10.23;;;20.10;81.50;;;;;;5108668;28;20470;-71
2021/07/08 06:08:23;;;;;;;12.88;9.90;;;20.10;82.00;;;;;;5120988;27;20035;-71
2021/07/08 06:10:48;;;;;;;13.25;8.68;;;20.10;82.30;;;;;;5122661;27;20061;-71
2021/07/08 06:13:14;;;;;;;14.30;9.10;;;20.10;82.00;;;;;;5118774;27;20486;-71
2021/07/08 06:15:40;;;;;;;17.85;8.65;;;20.10;82.10;;;;;;5125563;27;20110;-71
2021/07/08 06:18:06;;;;;;;16.60;8.98;;;20.10;81.50;;;;;;5114423;27;20057;-70
2021/07/08 06:20:32;;;;;;;16.58;8.38;;;20.20;81.80;;;;;;5120834;27;20075;-71
2021/07/08 06:22:58;;;;;;;15.73;8.07;;;20.20;81.60;;;;;;5115615;27;20114;-71
2021/07/08 06:25:28;;;;;;;11.10;7.47;;;20.20;80.90;;;;;;5130877;27;20019;-71
2021/07/08 06:27:57;;;;;;;13.68;8.52;;;20.20;79.20;;;;;;5121927;27;20351;-71
2021/07/08 06:30:23;;;;;;;14.85;8.85;;;20.10;79.90;;;;;;5119194;27;21638;-71
2021/07/08 06:32:49;;;;;;;13.95;8.23;;;20.20;80.80;;;;;;5116094;27;20034;-71
2021/07/08 06:35:18;;;;;;;11.90;7.70;;;20.20;80.70;;;;;;5125068;27;20039;-71
2021/07/08 06:37:46;;;;;;;15.70;8.35;;;20.20;80.20;;;;;;5117992;27;20024;-71
2021/07/08 06:40:14;;;;;;;13.68;6.57;;;20.20;79.30;;;;;;5121546;27;20039;-71
2021/07/08 06:42:39;;;;;;;14.38;7.68;;;20.30;78.90;;;;;;5112816;27;20038;-72
2021/07/08 06:45:06;;;;;;;16.63;9.02;;;20.20;79.00;;;;;;5117634;27;20031;-72
2021/07/08 06:47:39;;;;;;;13.73;8.15;;;20.30;79.10;;;;;;5115215;27;20493;-72
2021/07/08 06:50:08;;;;;;;17.42;8.05;;;20.30;79.10;;;;;;5114630;27;20042;-71
2021/07/08 06:52:34;;;;;;;28.65;8.93;;;20.30;78.70;;;;;;5120710;27;20478;-69
2021/07/08 06:55:00;;;;;;;12.90;7.90;;;20.30;79.20;;;;;;5111671;27;20035;-70
2021/07/08 06:57:25;;;;;;;15.00;7.72;;;20.30;79.60;;;;;;5103629;27;20077;-70
2021/07/08 06:59:54;;;;;;;18.13;7.78;;;20.30;79.10;;;;;;5111966;28;20024;-71
2021/07/08 07:02:21;;;;;;;13.90;7.82;;;20.30;79.50;;;;;;5110400;28;20451;-71
2021/07/08 07:04:46;;;;;;;12.65;8.35;;;20.30;80.10;;;;;;5119591;27;20020;-71
2021/07/08 07:07:15;;;;;;;18.58;8.48;;;20.40;79.80;;;;;;5116820;27;20382;-71
2021/07/08 07:09:44;;;;;;;19.60;9.27;;;20.40;80.70;;;;;;5123650;27;20024;-71
2021/07/08 07:12:10;;;;;;;12.10;7.43;;;20.40;81.20;;;;;;5109158;28;20038;-70
2021/07/08 07:14:36;;;;;;;10.02;6.85;;;20.50;81.40;;;;;;5117953;27;20031;-71
2021/07/08 07:17:02;;;;;;;17.25;7.70;;;20.50;81.00;;;;;;5121363;27;20028;-71
2021/07/08 07:19:28;;;;;;;11.27;7.38;;;20.60;81.10;;;;;;5116121;27;20034;-70
2021/07/08 07:21:54;;;;;;;13.32;6.55;;;20.60;79.90;;;;;;5123865;27;20051;-71
2021/07/08 07:24:21;;;;;;;14.27;8.07;;;20.60;79.50;;;;;;5114020;27;20055;-71
2021/07/08 07:26:47;;;;;;;15.68;7.38;;;20.70;80.10;;;;;;5114282;28;20123;-71
2021/07/08 07:29:13;;;;;;;12.40;6.95;;;20.70;81.20;;;;;;5096696;28;20024;-71
2021/07/08 07:31:39;;;;;;;13.35;7.30;;;20.80;81.70;;;;;;5110896;28;20035;-71
2021/07/08 07:34:05;;;;;;;14.40;7.30;;;20.90;81.80;;;;;;5117440;27;20046;-71
2021/07/08 07:36:30;;;;;;;13.68;7.05;;;20.90;81.30;;;;;;5115724;28;20062;-71
2021/07/08 07:38:56;;;;;;;10.52;6.60;;;20.90;81.20;;;;;;5115510;27;20016;-71
2021/07/08 07:41:21;;;;;;;13.10;7.10;;;21.00;81.20;;;;;;5118472;27;20035;-71
2021/07/08 07:43:48;;;;;;;15.40;7.32;;;21.10;80.90;;;;;;5112759;28;20744;-71
2021/07/08 07:46:14;;;;;;;10.63;6.22;;;21.10;80.90;;;;;;5112669;27;20081;-71
2021/07/08 07:48:39;;;;;;;13.82;6.57;;;21.20;80.70;;;;;;5115179;27;20020;-71
2021/07/08 07:51:05;;;;;;;10.35;6.38;;;21.30;80.70;;;;;;5112288;27;20059;-71
2021/07/08 07:53:31;;;;;;;12.45;6.45;;;21.40;80.50;;;;;;5110404;28;20018;-71
2021/07/08 07:55:57;;;;;;;10.57;6.22;;;21.40;79.40;;;;;;5112927;28;20535;-71
2021/07/08 07:58:23;;;;;;;12.45;6.32;;;21.40;79.10;;;;;;5114493;27;20038;-71
2021/07/08 08:00:48;;;;;;;24.48;6.50;;;21.50;79.10;;;;;;5112989;28;20039;-71
2021/07/08 08:03:14;;;;;;;9.93;6.13;;;21.60;78.90;;;;;;5112645;28;20072;-71
2021/07/08 08:05:41;;;;;;;11.65;6.55;;;21.50;78.90;;;;;;5107678;28;20034;-71
2021/07/08 08:10:54;;;;;;;11.30;5.05;;;21.70;79.40;;;;;;5114443;27;21635;-74
2021/07/08 08:13:21;;;;;;;13.15;3.78;;;21.70;79.10;;;;;;5107410;28;20039;-75
2021/07/08 08:15:49;;;;;;;13.60;6.25;;;21.80;79.00;;;;;;5112853;28;20032;-77
2021/07/08 08:18:15;;;;;;;10.02;5.65;;;21.90;77.90;;;;;;5120935;27;20043;-77
2021/07/08 08:20:41;;;;;;;8.45;5.38;;;21.90;77.20;;;;;;5110475;28;20052;-78
2021/07/08 08:23:07;;;;;;;14.80;5.85;;;21.90;76.70;;;;;;5086897;28;20383;-77
2021/07/08 08:25:32;;;;;;;10.68;5.68;;;21.90;76.50;;;;;;5116896;28;20028;-77
2021/07/08 08:27:59;;;;;;;8.52;5.70;;;22.00;77.30;;;;;;5110867;28;20081;-77
2021/07/08 08:30:28;;;;;;;17.38;6.47;;;21.90;77.70;;;;;;5110549;28;20024;-78
2021/07/08 08:32:53;;;;;;;11.02;5.88;;;22.00;77.80;;;;;;5114830;28;20032;-77
2021/07/08 08:35:19;;;;;;;12.50;5.55;;;22.10;77.00;;;;;;5111833;28;20072;-77
2021/07/08 08:37:45;;;;;;;12.85;4.80;;;22.10;77.00;;;;;;5107716;28;20493;-77
2021/07/08 08:40:12;;;;;;;12.25;5.10;;;22.10;76.10;;;;;;5114634;28;20043;-77
2021/07/08 08:42:38;;;;;;;14.38;6.30;;;22.10;75.80;;;;;;5115163;28;20031;-77
2021/07/08 08:45:07;;;;;;;9.23;5.22;;;22.10;76.90;;;;;;5114343;28;20070;-78
2021/07/08 08:47:32;;;;;;;10.50;5.45;;;22.10;76.90;;;;;;5102050;28;20080;-77
2021/07/08 08:50:00;;;;;;;10.27;5.35;;;22.10;77.70;;;;;;5110866;28;20035;-78
2021/07/08 08:52:28;;;;;;;7.30;4.80;;;22.20;75.90;;;;;;5111604;28;20019;-78
2021/07/08 08:54:54;;;;;;;14.75;5.03;;;22.20;75.90;;;;;;5112060;28;20023;-77
2021/07/08 08:57:24;;;;;;;8.88;4.97;;;22.30;75.10;;;;;;5107226;28;20035;-78
2021/07/08 08:59:50;;;;;;;12.15;5.82;;;22.30;75.80;;;;;;5111663;28;20023;-77
2021/07/08 09:02:19;;;;;;;14.88;5.20;;;22.40;75.40;;;;;;5112549;28;20034;-78
2021/07/08 09:04:50;;;;;;;8.43;5.50;;;22.50;75.30;;;;;;5112816;28;20378;-77
2021/07/08 09:07:23;;;;;;;16.20;5.57;;;22.60;75.80;;;;;;5092936;28;20038;-78
2021/07/08 09:09:57;;;;;;;10.13;5.07;;;22.60;75.20;;;;;;5104018;28;20085;-77
2021/07/08 09:12:24;;;;;;;7.70;3.75;;;22.70;75.10;;;;;;5113329;28;20519;-78
2021/07/08 09:14:52;;;;;;;8.75;3.92;;;22.70;74.30;;;;;;5116863;28;20098;-78
2021/07/08 09:17:20;;;;;;;9.35;4.22;;;22.70;74.20;;;;;;5115058;28;20074;-77
2021/07/08 09:19:47;;;;;;;15.30;4.20;;;22.70;74.10;;;;;;5102359;28;20378;-78
2021/07/08 09:22:26;;;;;;;10.85;3.75;;;22.60;73.90;;;;;;5113493;28;20055;-78
2021/07/08 09:24:52;;;;;;;11.20;4.93;;;22.60;74.30;;;;;;5104352;28;20039;-78
2021/07/08 09:27:41;;;;;;;9.43;5.68;;;22.60;74.40;;;;;;5118243;28;20401;-78
2021/07/08 09:30:07;;;;;;;8.65;5.57;;;22.50;74.30;;;;;;5105146;28;20072;-78
2021/07/08 09:32:34;;;;;;;15.25;5.57;;;22.60;74.10;;;;;;5119731;28;20032;-78
2021/07/08 09:35:05;;;;;;;11.95;5.13;;;22.60;73.50;;;;;;5125824;27;20066;-77
2021/07/08 09:37:30;;;;;;;8.10;3.80;;;22.70;73.80;;;;;;5123172;27;20035;-77
2021/07/08 09:39:58;;;;;;;12.20;4.70;;;22.80;73.90;;;;;;5118086;27;20027;-77
2021/07/08 09:42:37;;;;;;;11.13;5.13;;;22.90;73.60;;;;;;5108610;28;20038;-78
2021/07/08 09:45:11;;;;;;;9.70;4.25;;;22.90;73.50;;;;;;5114558;28;20034;-77
2021/07/08 09:47:37;;;;;;;12.60;5.50;;;22.90;73.90;;;;;;5113142;27;20030;-78
2021/07/08 09:50:09;;;;;;;8.80;3.60;;;22.80;73.60;;;;;;5117926;27;20515;-71
2021/07/08 09:52:34;;;;;;;13.80;3.92;;;22.80;73.70;;;;;;5122347;27;20428;-78
2021/07/08 09:55:16;;;;;;;13.52;4.88;;;22.90;74.20;;;;;;5122283;27;20093;-79
2021/07/08 09:57:47;;;;;;;15.25;3.58;;;22.80;73.80;;;;;;5121291;27;20110;-77
2021/07/08 10:00:19;;;;;;;10.63;4.45;;;22.80;74.30;;;;;;5113989;27;20024;-77
2021/07/08 10:02:49;;;;;;;11.75;4.75;;;22.90;74.40;;;;;;5121406;27;20418;-77
2021/07/08 10:05:16;;;;;;;19.60;5.10;;;22.90;73.90;;;;;;5121965;27;20023;-77
2021/07/08 10:07:45;;;;;;;15.50;4.50;;;23.00;73.90;;;;;;5118261;27;20458;-76
2021/07/08 10:10:12;;;;;;;9.20;3.80;;;23.10;74.20;;;;;;5118005;27;20059;-77
2021/07/08 10:12:40;;;;;;;20.73;4.82;;;23.20;73.70;;;;;;5123902;27;20020;-77
2021/07/08 10:15:11;;;;;;;10.27;4.68;;;23.30;74.10;;;;;;5123490;27;20036;-77
2021/07/08 10:17:38;;;;;;;16.60;4.35;;;23.40;73.30;;;;;;5122516;27;20510;-76
2021/07/08 10:20:10;;;;;;;9.90;4.15;;;23.50;72.80;;;;;;5124368;27;20125;-76
2021/07/08 10:22:37;;;;;;;12.70;3.53;;;23.50;72.30;;;;;;5127755;27;20485;-77
2021/07/08 10:25:05;;;;;;;9.95;4.20;;;23.60;72.00;;;;;;5124213;27;20483;-76
2021/07/08 10:27:32;;;;;;;9.73;4.38;;;23.70;72.10;;;;;;5118481;27;20027;-76
2021/07/08 10:29:59;;;;;;;16.98;5.45;;;23.70;72.20;;;;;;5122489;27;20035;-76
2021/07/08 10:32:27;;;;;;;12.45;4.78;;;23.70;72.20;;;;;;5114798;27;20020;-76
2021/07/08 10:34:53;;;;;;;8.13;4.28;;;23.80;72.90;;;;;;5115403;27;20028;-76
2021/07/08 10:37:25;;;;;;;11.18;4.50;;;23.80;72.70;;;;;;5117171;27;20027;-76
2021/07/08 10:39:51;;;;;;;11.10;4.78;;;23.80;72.50;;;;;;5108055;27;20106;-77
2021/07/08 10:42:45;;;;;;;9.77;4.22;;;23.80;73.20;;;;;;5113338;28;20072;-77
2021/07/08 10:45:23;;;;;;;;;;;23.90;73.20;;;;;;5106124;27;20035;-77
2021/07/08 10:48:09;;;;;;;10.05;5.50;;;23.90;73.60;;;;;;5124979;27;19915;-76
2021/07/08 10:50:37;;;;;;;6.28;3.85;;;23.90;72.30;;;;;;5114330;27;20034;-77
2021/07/08 10:53:28;;;;;;;11.00;4.60;;;23.90;72.50;;;;;;5124373;27;20026;-78
2021/07/08 10:55:56;;;;;;;8.77;4.30;;;24.00;72.30;;;;;;5119196;27;20106;-78
2021/07/08 10:58:56;;;;;;;9.95;4.22;;;24.10;71.30;;;;;;5129481;27;20038;-75
2021/07/08 11:01:21;;;;;;;5.68;3.42;;;24.20;70.80;;;;;;5122526;27;20489;-76
2021/07/08 11:03:58;;;;;;;16.08;3.92;;;24.30;70.80;;;;;;5121051;27;20024;-75
2021/07/08 11:06:37;;;;;;;15.10;4.32;;;24.30;70.30;;;;;;5121110;27;20113;-81
2021/07/08 11:09:18;;;;;;;6.55;3.83;;;24.40;70.30;;;;;;5125260;27;20078;-77
2021/07/08 11:11:48;;;;;;;7.32;3.38;;;24.50;70.20;;;;;;5117421;27;20035;-76
2021/07/08 11:14:16;;;;;;;5.72;3.67;;;24.50;70.50;;;;;;5112294;28;20062;-76
2021/07/08 11:16:43;;;;;;;14.50;5.75;;;24.50;70.70;;;;;;5116349;27;20050;-78
2021/07/08 11:19:13;;;;;;;5.63;3.20;;;24.50;70.20;;;;;;5114270;27;20019;-76
2021/07/08 11:21:59;;;;;;;9.05;3.20;;;24.60;69.80;;;;;;5114226;27;20466;-77
2021/07/08 11:24:43;;;;;;;8.00;3.00;;;24.60;70.00;;;;;;5118379;27;20390;-77
2021/07/08 11:27:10;;;;;;;7.15;3.22;;;24.60;69.50;;;;;;5119649;27;20610;-76
2021/07/08 11:29:38;;;;;;;13.38;3.33;;;24.70;70.00;;;;;;5113293;28;20374;-78
2021/07/08 11:32:24;;;;;;;11.75;3.28;;;24.70;70.00;;;;;;5116475;27;20027;-77
2021/07/08 11:35:07;;;;;;;8.85;2.90;;;24.70;70.30;;;;;;5086377;27;20060;-76
2021/07/08 11:37:39;;;;;;;5.68;3.15;;;24.70;70.40;;;;;;5088298;28;20141;-76
2021/07/08 11:40:09;;;;;;;14.38;3.75;;;24.70;71.00;;;;;;5113861;27;20102;-76
2021/07/08 11:42:39;;;;;;;13.63;3.83;;;24.70;71.20;;;;;;5114203;28;20035;-76
2021/07/08 11:45:22;;;;;;;6.63;3.47;;;24.60;71.40;;;;;;5097101;28;20031;-77
2021/07/08 11:47:51;;;;;;;5.63;3.15;;;24.70;71.90;;;;;;5113454;28;20031;-76
2021/07/08 11:50:25;;;;;;;6.28;3.28;;;24.80;72.40;;;;;;5113496;27;20397;-77
2021/07/08 11:53:05;;;;;;;9.48;3.17;;;24.80;72.50;;;;;;5124480;27;20022;-76
2021/07/08 11:55:31;;;;;;;12.20;3.03;;;24.90;72.60;;;;;;5115041;27;20023;-75
2021/07/08 11:57:59;;;;;;;9.20;3.78;;;24.90;72.30;;;;;;5096109;28;20038;-75
2021/07/08 12:00:29;;;;;;;13.07;3.22;;;25.00;72.50;;;;;;5114997;27;20129;-75
2021/07/08 12:03:00;;;;;;;9.13;3.20;;;25.00;73.30;;;;;;5114322;27;20027;-75
2021/07/08 12:05:26;;;;;;;10.20;3.38;;;25.00;73.80;;;;;;5111813;28;20055;-75
2021/07/08 12:08:06;;;;;;;22.52;4.20;;;25.00;73.60;;;;;;5115237;27;20390;-76
2021/07/08 12:10:39;;;;;;;110.50;12.85;;;25.00;73.80;;;;;;5116116;27;20436;-75
2021/07/08 12:13:05;;;;;;;26.80;5.88;;;25.00;73.80;;;;;;5112038;28;20039;-78
2021/07/08 12:15:31;;;;;;;12.82;4.78;;;25.00;73.90;;;;;;5113202;27;20098;-75
2021/07/08 12:18:00;;;;;;;26.88;5.78;;;25.00;74.00;;;;;;5112223;28;20024;-72
2021/07/08 12:20:28;;;;;;;9.85;5.60;;;25.00;72.90;;;;;;5115123;27;20478;-72
2021/07/08 12:22:57;;;;;;;9.00;5.30;;;25.00;72.30;;;;;;5120082;27;20031;-74
2021/07/08 12:25:25;;;;;;;13.90;4.65;;;25.10;71.90;;;;;;5115081;28;20117;-76
2021/07/08 12:27:51;;;;;;;35.60;5.35;;;25.10;73.20;;;;;;5109509;28;20054;-76
2021/07/08 12:30:23;;;;;;;17.38;4.85;;;25.10;73.00;;;;;;5112447;28;20035;-75
2021/07/08 12:33:04;;;;;;;10.52;3.95;;;25.20;73.30;;;;;;5120475;28;20023;-76
2021/07/08 12:35:44;;;;;;;9.85;3.58;;;25.20;73.80;;;;;;5112533;28;20043;-75
2021/07/08 12:38:15;;;;;;;6.07;3.42;;;25.20;73.60;;;;;;5100901;28;20042;-75
2021/07/08 12:40:41;;;;;;;9.00;3.45;;;25.30;73.60;;;;;;5110848;28;20038;-75
2021/07/08 12:43:19;;;;;;;12.02;3.58;;;25.30;73.50;;;;;;5121565;28;20073;-75
2021/07/08 12:45:45;;;;;;;7.22;2.97;;;25.30;73.10;;;;;;5115981;28;20065;-75
2021/07/08 12:48:13;;;;;;;11.50;3.70;;;25.30;73.30;;;;;;5124587;27;20027;-75